Terminal Aerodrome Forecast
Issued by NWS

Home | Current Version | Previous Version | Text Only | Print | Product List | Glossary On
Versions: 1 2 3 4 5 6 7 8 9 10 11
000
FTUS43 KEAX 090522
TAFMKC
TAF
KMKC 090522Z 0906/1006 24005KT P6SM SKC
     FM090900 31007KT P6SM FEW250
     FM091500 33007G17KT P6SM FEW150
     FM100000 VRB03KT P6SM SKC=

USA.gov is the U.S. government's official web portal to all federal, state and local government web resources and services.